Item Display Status Serial CT Sensor

Mooring Depth: 1 m

 

Deployed Sensor

  • Serial Number: 7746
  • NDBC Property Number: 33338
  • Start Date: 7/18/2014 (00:00:00 Z)
  • End Date: 3/7/2015 (20:08:00 Z)
Water Temperature [°C]     6 entries per hour
Showing data from 3/7/2015 (20:00:00 Z) to 3/6/2015 (00:00:01 Z)
Previous Next [ Day | 3-Days | 7-Days ]
First Last
Prev [ Day | 3-Days | 7-Days ] Next
First Last

Start Time:     :
End Time:     :     
Time (in GMT) :00 :50 :40 :30 :20 :10
Previous Next [ Day | 3-Days | 7-Days ]
First Last
Prev [ Day | 3-Days | 7-Days ] Next
First Last


123 => good data
MM => data is determined as missing
-- => data not received/configured
Back to Top Back to Top
3/7/2015 20:00 to 19:10 27.383 27.368 27.362 27.355 27.371 27.350
3/7/2015 19:00 to 18:10 27.342 27.347 27.329 27.343 27.337 27.332
3/7/2015 18:00 to 17:10 27.326 27.319 27.317 27.314 27.298 27.292
3/7/2015 17:00 to 16:10 27.291 27.296 27.298 27.296 27.294 27.294
3/7/2015 16:00 to 15:10 27.291 27.286 27.287 27.297 27.285 --
3/7/2015 15:00 to 14:10 27.290 27.292 27.292 27.286 27.294 27.300
3/7/2015 14:00 to 13:10 -- 27.299 27.307 27.306 27.314 27.307
3/7/2015 13:00 to 12:10 27.309 27.319 27.311 27.312 27.318 27.315
3/7/2015 12:00 to 11:10 27.321 27.313 27.316 27.330 27.329 27.337
3/7/2015 11:00 to 10:10 27.336 27.337 27.329 27.327 27.341 27.342
3/7/2015 10:00 to 9:10 27.347 27.344 27.352 27.355 27.358 27.359
3/7/2015 09:00 to 8:10 27.363 27.368 27.361 27.375 27.380 27.375
3/7/2015 08:00 to 7:10 27.383 27.394 27.396 27.395 27.396 27.399
3/7/2015 07:00 to 6:10 27.390 27.412 27.399 27.405 27.402 27.416
3/7/2015 06:00 to 5:10 27.417 27.421 27.429 27.428 27.435 27.437
3/7/2015 05:00 to 4:10 27.440 27.434 27.448 27.443 27.462 27.464
3/7/2015 04:00 to 3:10 27.477 27.460 27.474 27.479 27.479 27.478
3/7/2015 03:00 to 2:10 27.482 27.497 27.505 27.513 27.509 27.536
3/7/2015 02:00 to 1:10 27.546 27.549 27.543 27.560 27.575 27.581
3/7/2015 01:00 to 0:10 27.574 27.594 27.597 27.621 27.614 27.608
3/7/2015 00:00 to 23:10 27.602 27.609 27.601 27.642 27.616 27.625
3/6/2015 23:00 to 22:10 27.632 27.589 27.609 27.581 27.560 27.584
3/6/2015 22:00 to 21:10 27.578 27.572 27.527 27.556 27.523 27.576
3/6/2015 21:00 to 20:10 27.506 27.570 27.516 27.510 27.457 27.441
3/6/2015 20:00 to 19:10 27.458 27.457 27.428 27.458 27.430 27.403
3/6/2015 19:00 to 18:10 27.416 27.389 27.392 27.402 27.402 27.384
3/6/2015 18:00 to 17:10 27.380 27.363 27.362 27.361 27.357 27.356
3/6/2015 17:00 to 16:10 27.348 27.350 27.338 27.340 27.341 27.334
3/6/2015 16:00 to 15:10 27.337 27.331 27.328 27.345 27.337 27.350
3/6/2015 15:00 to 14:10 27.346 27.330 27.345 27.345 27.343 27.354
3/6/2015 14:00 to 13:10 27.339 27.353 27.339 27.355 27.354 27.359
3/6/2015 13:00 to 12:10 27.369 27.381 27.372 27.362 27.354 27.369
3/6/2015 12:00 to 11:10 27.366 27.377 27.373 27.373 27.388 27.357
3/6/2015 11:00 to 10:10 27.387 27.400 27.380 27.382 27.387 27.390
3/6/2015 10:00 to 9:10 27.405 27.411 27.402 27.415 27.399 27.403
3/6/2015 09:00 to 8:10 27.423 27.413 27.430 27.412 27.427 27.441
3/6/2015 08:00 to 7:10 27.424 27.444 27.467 27.456 27.446 27.461
3/6/2015 07:00 to 6:10 27.459 27.477 27.488 27.467 27.455 27.496
3/6/2015 06:00 to 5:10 27.453 27.467 27.476 27.474 27.494 27.494
3/6/2015 05:00 to 4:10 27.501 27.491 27.510 27.536 27.516 27.504
3/6/2015 04:00 to 3:10 27.548 27.559 27.563 27.553 27.561 27.592
3/6/2015 03:00 to 2:10 27.568 27.580 27.599 27.609 27.601 27.566
3/6/2015 02:00 to 1:10 27.624 27.674 27.651 27.653 27.652 27.657
3/6/2015 01:00 to 0:10 27.698 27.686 27.683 27.665 27.686 27.707

 

 

 

Conductivity [S/m]     6 entries per hour
Showing data from 3/7/2015 (20:00:00 Z) to 3/6/2015 (00:00:01 Z)
Previous Next [ Day | 3-Days | 7-Days ]
First Last
Prev [ Day | 3-Days | 7-Days ] Next
First Last

Start Time:     :
End Time:     :     
Time (in GMT) :00 :50 :40 :30 :20 :10
Previous Next [ Day | 3-Days | 7-Days ]
First Last
Prev [ Day | 3-Days | 7-Days ] Next
First Last


123 => good data
MM => data is determined as missing
-- => data not received/configured
Back to Top Back to Top
3/7/2015 20:00 to 19:10 5.48771 5.48629 5.48557 5.48504 5.48628 5.48393
3/7/2015 19:00 to 18:10 5.48340 5.48373 5.48189 5.48337 5.48205 5.48192
3/7/2015 18:00 to 17:10 5.48153 5.48087 5.48060 5.48017 5.47839 5.47805
3/7/2015 17:00 to 16:10 5.47789 5.47840 5.47870 5.47863 5.47822 5.47817
3/7/2015 16:00 to 15:10 5.47791 5.47736 5.47758 5.47831 5.47748 5.47774
3/7/2015 15:00 to 14:10 5.47760 5.47824 5.47849 5.47800 5.47861 5.47870
3/7/2015 14:00 to 13:10 5.47948 5.47937 5.48009 5.47986 5.48005 5.47966
3/7/2015 13:00 to 12:10 5.48016 5.48052 5.48058 5.48057 5.48079 5.48084
3/7/2015 12:00 to 11:10 5.48130 5.48130 5.48132 5.48227 5.48238 5.48301
3/7/2015 11:00 to 10:10 5.48297 5.48310 5.48268 5.48281 5.48390 5.48382
3/7/2015 10:00 to 9:10 5.48400 5.48381 5.48474 5.48500 5.48532 5.48523
3/7/2015 09:00 to 8:10 5.48594 5.48637 5.48567 5.48721 5.48770 5.48738
3/7/2015 08:00 to 7:10 5.48840 5.48959 5.48938 5.48913 5.48931 5.48971
3/7/2015 07:00 to 6:10 5.48920 5.49111 5.49023 5.49098 5.49071 5.49174
3/7/2015 06:00 to 5:10 5.49215 5.49227 5.49318 5.49278 5.49423 5.49451
3/7/2015 05:00 to 4:10 5.49517 5.49389 5.49489 5.49611 5.49686 5.49701
3/7/2015 04:00 to 3:10 5.49841 5.49699 5.49831 5.49912 5.49871 5.49883
3/7/2015 03:00 to 2:10 5.49944 5.50081 5.50164 5.50250 5.50227 5.50524
3/7/2015 02:00 to 1:10 5.50560 5.50658 5.50573 5.50795 5.50930 5.50991
3/7/2015 01:00 to 0:10 5.50930 5.51097 5.51178 5.51420 5.51339 5.51269
3/7/2015 00:00 to 23:10 5.51207 5.51269 5.51238 5.51715 5.51462 5.51489
3/6/2015 23:00 to 22:10 5.51470 5.51159 5.51286 5.51008 5.50859 5.50985
3/6/2015 22:00 to 21:10 5.50880 5.50919 5.50514 5.50696 5.50577 5.50800
3/6/2015 21:00 to 20:10 5.50152 5.50818 5.50342 5.50331 5.49733 5.49666
3/6/2015 20:00 to 19:10 5.49724 5.49782 5.49434 5.49643 5.49392 5.49145
3/6/2015 19:00 to 18:10 5.49205 5.48957 5.49068 5.49140 5.49108 5.48972
3/6/2015 18:00 to 17:10 5.48921 5.48698 5.48710 5.48715 5.48682 5.48632
3/6/2015 17:00 to 16:10 5.48565 5.48623 5.48471 5.48494 5.48490 5.48445
3/6/2015 16:00 to 15:10 5.48463 5.48402 5.48413 5.48557 5.48491 5.48625
3/6/2015 15:00 to 14:10 5.48602 5.48463 5.48567 5.48587 5.48641 5.48691
3/6/2015 14:00 to 13:10 5.48532 5.48698 5.48610 5.48787 5.48743 5.48764
3/6/2015 13:00 to 12:10 5.48831 5.48989 5.48920 5.48841 5.48797 5.48962
3/6/2015 12:00 to 11:10 5.48850 5.48980 5.48951 5.48997 5.49125 5.48803
3/6/2015 11:00 to 10:10 5.49141 5.49209 5.49045 5.49073 5.49080 5.49152
3/6/2015 10:00 to 9:10 5.49278 5.49364 5.49207 5.49366 5.49217 5.49356
3/6/2015 09:00 to 8:10 5.49460 5.49401 5.49540 5.49336 5.49485 5.49664
3/6/2015 08:00 to 7:10 5.49475 5.49708 5.49950 5.49859 5.49732 5.49958
3/6/2015 07:00 to 6:10 5.49913 5.50036 5.50210 5.49909 5.49868 5.50271
3/6/2015 06:00 to 5:10 5.49866 5.49927 5.50054 5.50072 5.50211 5.50238
3/6/2015 05:00 to 4:10 5.50324 5.50208 5.50390 5.50656 5.50570 5.50426
3/6/2015 04:00 to 3:10 5.50776 5.50942 5.51061 5.50850 5.50998 5.51291
3/6/2015 03:00 to 2:10 5.51091 5.51174 5.51290 5.51428 5.51431 5.51126
3/6/2015 02:00 to 1:10 5.51656 5.52232 5.51950 5.51954 5.51939 5.52046
3/6/2015 01:00 to 0:10 5.52500 5.52345 5.52338 5.52194 5.52340 5.52639

 

 

 

Salinity [psu]     6 entries per hour
Showing data from 3/7/2015 (20:00:00 Z) to 3/6/2015 (00:00:01 Z)
Previous Next [ Day | 3-Days | 7-Days ]
First Last
Prev [ Day | 3-Days | 7-Days ] Next
First Last

Start Time:     :
End Time:     :     
Time (in GMT) :00 :50 :40 :30 :20 :10
Previous Next [ Day | 3-Days | 7-Days ]
First Last
Prev [ Day | 3-Days | 7-Days ] Next
First Last


123 => good data
MM => data is determined as missing
-- => data not received/configured
Back to Top Back to Top
3/7/2015 20:00 to 19:10 34.51 34.51 34.51 34.51 34.50 34.50
3/7/2015 19:00 to 18:10 34.51 34.50 34.50 34.50 34.50 34.50
3/7/2015 18:00 to 17:10 34.50 34.50 34.50 34.50 34.50 34.50
3/7/2015 17:00 to 16:10 34.50 34.50 34.50 34.51 34.50 34.50
3/7/2015 16:00 to 15:10 34.50 34.50 34.50 34.50 34.51 --
3/7/2015 15:00 to 14:10 34.50 34.51 34.51 34.51 34.51 34.50
3/7/2015 14:00 to 13:10 -- 34.51 34.51 34.51 34.50 34.50
3/7/2015 13:00 to 12:10 34.51 34.50 34.51 34.51 34.50 34.51
3/7/2015 12:00 to 11:10 34.51 34.51 34.51 34.51 34.51 34.51
3/7/2015 11:00 to 10:10 34.51 34.51 34.51 34.51 34.51 34.51
3/7/2015 10:00 to 9:10 34.51 34.51 34.51 34.51 34.51 34.51
3/7/2015 09:00 to 8:10 34.51 34.51 34.51 34.51 34.51 34.51
3/7/2015 08:00 to 7:10 34.51 34.51 34.51 34.51 34.51 34.51
3/7/2015 07:00 to 6:10 34.51 34.51 34.51 34.51 34.51 34.51
3/7/2015 06:00 to 5:10 34.51 34.51 34.51 34.51 34.51 34.51
3/7/2015 05:00 to 4:10 34.52 34.51 34.51 34.52 34.51 34.51
3/7/2015 04:00 to 3:10 34.51 34.51 34.51 34.51 34.51 34.51
3/7/2015 03:00 to 2:10 34.52 34.51 34.51 34.51 34.52 34.52
3/7/2015 02:00 to 1:10 34.51 34.52 34.51 34.52 34.52 34.52
3/7/2015 01:00 to 0:10 34.52 34.51 34.52 34.52 34.52 34.52
3/7/2015 00:00 to 23:10 34.52 34.52 34.52 34.52 34.52 34.52
3/6/2015 23:00 to 22:10 34.51 34.52 34.52 34.52 34.52 34.51
3/6/2015 22:00 to 21:10 34.51 34.52 34.52 34.51 34.53 34.51
3/6/2015 21:00 to 20:10 34.51 34.51 34.52 34.52 34.52 34.53
3/6/2015 20:00 to 19:10 34.52 34.52 34.52 34.51 34.51 34.52
3/6/2015 19:00 to 18:10 34.51 34.51 34.52 34.52 34.51 34.52
3/6/2015 18:00 to 17:10 34.52 34.52 34.52 34.52 34.52 34.52
3/6/2015 17:00 to 16:10 34.52 34.52 34.52 34.52 34.52 34.52
3/6/2015 16:00 to 15:10 34.52 34.52 34.52 34.52 34.52 34.52
3/6/2015 15:00 to 14:10 34.52 34.52 34.52 34.52 34.53 34.52
3/6/2015 14:00 to 13:10 34.52 34.52 34.53 34.53 34.53 34.52
3/6/2015 13:00 to 12:10 34.52 34.52 34.52 34.53 34.53 34.53
3/6/2015 12:00 to 11:10 34.52 34.52 34.53 34.53 34.53 34.53
3/6/2015 11:00 to 10:10 34.53 34.52 34.53 34.53 34.52 34.53
3/6/2015 10:00 to 9:10 34.52 34.53 34.52 34.52 34.53 34.53
3/6/2015 09:00 to 8:10 34.52 34.53 34.53 34.52 34.52 34.53
3/6/2015 08:00 to 7:10 34.52 34.53 34.53 34.53 34.53 34.53
3/6/2015 07:00 to 6:10 34.53 34.53 34.53 34.52 34.53 34.53
3/6/2015 06:00 to 5:10 34.53 34.53 34.53 34.53 34.53 34.53
3/6/2015 05:00 to 4:10 34.53 34.53 34.53 34.53 34.53 34.53
3/6/2015 04:00 to 3:10 34.53 34.53 34.53 34.53 34.53 34.53
3/6/2015 03:00 to 2:10 34.53 34.53 34.52 34.53 34.53 34.54
3/6/2015 02:00 to 1:10 34.53 34.53 34.53 34.53 34.53 34.53
3/6/2015 01:00 to 0:10 34.54 34.53 34.54 34.54 34.53 34.54